sensor_id;sensor_type;location;lat;lon;timestamp;P1;durP1;ratioP1;P2;durP2;ratioP2
39256;SDS011;24958;48.066;11.038;2022-10-28T00:03:28;4.67;;;3.47;;
39256;SDS011;24958;48.066;11.038;2022-10-28T00:06:00;6.23;;;3.37;;
39256;SDS011;24958;48.066;11.038;2022-10-28T00:08:26;6.97;;;3.57;;
39256;SDS011;24958;48.066;11.038;2022-10-28T00:10:59;3.93;;;2.83;;
39256;SDS011;24958;48.066;11.038;2022-10-28T00:13:25;4.83;;;3.10;;
39256;SDS011;24958;48.066;11.038;2022-10-28T00:15:51;4.23;;;3.13;;
39256;SDS011;24958;48.066;11.038;2022-10-28T00:18:17;3.83;;;3.10;;
39256;SDS011;24958;48.066;11.038;2022-10-28T00:20:43;4.87;;;3.23;;
39256;SDS011;24958;48.066;11.038;2022-10-28T00:23:09;4.33;;;3.80;;
39256;SDS011;24958;48.066;11.038;2022-10-28T00:25:35;6.93;;;3.33;;
39256;SDS011;24958;48.066;11.038;2022-10-28T00:28:01;5.30;;;3.63;;
39256;SDS011;24958;48.066;11.038;2022-10-28T00:30:27;6.60;;;3.23;;
39256;SDS011;24958;48.066;11.038;2022-10-28T00:32:53;3.90;;;3.47;;
39256;SDS011;24958;48.066;11.038;2022-10-28T00:35:19;4.70;;;3.20;;
39256;SDS011;24958;48.066;11.038;2022-10-28T00:37:45;5.07;;;3.70;;
39256;SDS011;24958;48.066;11.038;2022-10-28T00:40:11;4.07;;;3.67;;
39256;SDS011;24958;48.066;11.038;2022-10-28T00:42:37;6.87;;;3.67;;
39256;SDS011;24958;48.066;11.038;2022-10-28T00:45:03;3.97;;;3.47;;
39256;SDS011;24958;48.066;11.038;2022-10-28T00:47:32;6.77;;;3.40;;
39256;SDS011;24958;48.066;11.038;2022-10-28T00:50:12;3.93;;;3.53;;
39256;SDS011;24958;48.066;11.038;2022-10-28T00:52:39;5.17;;;3.83;;
39256;SDS011;24958;48.066;11.038;2022-10-28T00:55:06;5.13;;;3.80;;
39256;SDS011;24958;48.066;11.038;2022-10-28T00:57:33;4.23;;;3.00;;
39256;SDS011;24958;48.066;11.038;2022-10-28T01:00:00;4.37;;;3.70;;
39256;SDS011;24958;48.066;11.038;2022-10-28T01:02:27;5.33;;;3.30;;
39256;SDS011;24958;48.066;11.038;2022-10-28T01:04:53;4.17;;;3.70;;
39256;SDS011;24958;48.066;11.038;2022-10-28T01:07:19;5.60;;;3.70;;
39256;SDS011;24958;48.066;11.038;2022-10-28T01:09:45;4.53;;;3.53;;
39256;SDS011;24958;48.066;11.038;2022-10-28T01:30:13;7.73;;;3.60;;
39256;SDS011;24958;48.066;11.038;2022-10-28T01:35:26;6.60;;;3.70;;
39256;SDS011;24958;48.066;11.038;2022-10-28T01:40:34;4.70;;;3.40;;
39256;SDS011;24958;48.066;11.038;2022-10-28T01:51:23;4.40;;;3.40;;
39256;SDS011;24958;48.066;11.038;2022-10-28T01:53:46;3.53;;;3.07;;
39256;SDS011;24958;48.066;11.038;2022-10-28T01:56:14;4.33;;;3.30;;
39256;SDS011;24958;48.066;11.038;2022-10-28T01:58:41;4.50;;;3.70;;
39256;SDS011;24958;48.066;11.038;2022-10-28T02:01:08;4.97;;;3.47;;
39256;SDS011;24958;48.066;11.038;2022-10-28T02:03:34;7.13;;;4.40;;
39256;SDS011;24958;48.066;11.038;2022-10-28T02:06:02;3.87;;;3.47;;
39256;SDS011;24958;48.066;11.038;2022-10-28T02:14:00;4.10;;;3.33;;
39256;SDS011;24958;48.066;11.038;2022-10-28T02:19:12;4.37;;;3.83;;
39256;SDS011;24958;48.066;11.038;2022-10-28T02:21:50;4.63;;;3.90;;
39256;SDS011;24958;48.066;11.038;2022-10-28T02:26:46;6.07;;;3.57;;
39256;SDS011;24958;48.066;11.038;2022-10-28T02:29:25;4.00;;;3.40;;
39256;SDS011;24958;48.066;11.038;2022-10-28T02:31:54;3.93;;;3.63;;
39256;SDS011;24958;48.066;11.038;2022-10-28T02:34:22;5.80;;;3.90;;
39256;SDS011;24958;48.066;11.038;2022-10-28T02:36:50;3.93;;;3.53;;
39256;SDS011;24958;48.066;11.038;2022-10-28T02:39:18;5.87;;;3.50;;
39256;SDS011;24958;48.066;11.038;2022-10-28T02:41:48;4.50;;;3.73;;
39256;SDS011;24958;48.066;11.038;2022-10-28T02:44:20;4.60;;;3.90;;
39256;SDS011;24958;48.066;11.038;2022-10-28T02:46:48;4.67;;;3.50;;
39256;SDS011;24958;48.066;11.038;2022-10-28T02:49:15;3.87;;;3.43;;
39256;SDS011;24958;48.066;11.038;2022-10-28T02:51:50;6.40;;;3.63;;
39256;SDS011;24958;48.066;11.038;2022-10-28T02:54:20;4.57;;;3.43;;
39256;SDS011;24958;48.066;11.038;2022-10-28T02:56:48;4.47;;;3.57;;
39256;SDS011;24958;48.066;11.038;2022-10-28T02:59:16;5.17;;;3.93;;
39256;SDS011;24958;48.066;11.038;2022-10-28T03:01:42;5.13;;;3.77;;
39256;SDS011;24958;48.066;11.038;2022-10-28T03:04:08;5.43;;;3.53;;
39256;SDS011;24958;48.066;11.038;2022-10-28T03:06:34;4.33;;;3.50;;
39256;SDS011;24958;48.066;11.038;2022-10-28T03:09:00;4.37;;;3.43;;
39256;SDS011;24958;48.066;11.038;2022-10-28T03:11:26;4.20;;;3.70;;
39256;SDS011;24958;48.066;11.038;2022-10-28T03:13:52;3.40;;;2.97;;
39256;SDS011;24958;48.066;11.038;2022-10-28T03:16:18;4.57;;;3.17;;
39256;SDS011;24958;48.066;11.038;2022-10-28T03:18:44;5.20;;;3.03;;
39256;SDS011;24958;48.066;11.038;2022-10-28T03:21:10;5.33;;;3.20;;
39256;SDS011;24958;48.066;11.038;2022-10-28T03:23:36;5.00;;;3.30;;
39256;SDS011;24958;48.066;11.038;2022-10-28T03:26:02;3.73;;;3.13;;
39256;SDS011;24958;48.066;11.038;2022-10-28T03:28:28;3.20;;;2.90;;
39256;SDS011;24958;48.066;11.038;2022-10-28T03:30:54;5.47;;;3.53;;
39256;SDS011;24958;48.066;11.038;2022-10-28T03:33:20;4.03;;;3.27;;
39256;SDS011;24958;48.066;11.038;2022-10-28T03:35:46;5.10;;;3.50;;
39256;SDS011;24958;48.066;11.038;2022-10-28T03:38:12;5.17;;;3.23;;
39256;SDS011;24958;48.066;11.038;2022-10-28T03:40:38;4.00;;;3.00;;
39256;SDS011;24958;48.066;11.038;2022-10-28T03:43:04;3.27;;;2.80;;
39256;SDS011;24958;48.066;11.038;2022-10-28T03:45:30;4.60;;;3.07;;
39256;SDS011;24958;48.066;11.038;2022-10-28T03:47:56;4.53;;;3.17;;
39256;SDS011;24958;48.066;11.038;2022-10-28T03:50:22;5.67;;;3.20;;
39256;SDS011;24958;48.066;11.038;2022-10-28T03:52:49;3.40;;;3.10;;
39256;SDS011;24958;48.066;11.038;2022-10-28T03:55:15;5.30;;;3.20;;
39256;SDS011;24958;48.066;11.038;2022-10-28T03:57:41;4.90;;;3.53;;
39256;SDS011;24958;48.066;11.038;2022-10-28T04:00:07;4.67;;;3.23;;
39256;SDS011;24958;48.066;11.038;2022-10-28T04:02:33;5.33;;;3.50;;
39256;SDS011;24958;48.066;11.038;2022-10-28T04:04:59;11.00;;;7.67;;
39256;SDS011;24958;48.066;11.038;2022-10-28T04:07:25;3.63;;;3.33;;
39256;SDS011;24958;48.066;11.038;2022-10-28T04:09:51;5.73;;;3.90;;
39256;SDS011;24958;48.066;11.038;2022-10-28T04:12:17;4.20;;;3.10;;
39256;SDS011;24958;48.066;11.038;2022-10-28T04:14:43;4.33;;;2.93;;
39256;SDS011;24958;48.066;11.038;2022-10-28T04:17:09;4.07;;;3.40;;
39256;SDS011;24958;48.066;11.038;2022-10-28T04:19:35;3.60;;;3.30;;
39256;SDS011;24958;48.066;11.038;2022-10-28T04:22:01;4.47;;;3.10;;
39256;SDS011;24958;48.066;11.038;2022-10-28T04:24:27;4.73;;;3.10;;
39256;SDS011;24958;48.066;11.038;2022-10-28T04:26:53;5.50;;;3.13;;
39256;SDS011;24958;48.066;11.038;2022-10-28T04:29:19;5.10;;;3.47;;
39256;SDS011;24958;48.066;11.038;2022-10-28T04:31:45;3.30;;;3.00;;
39256;SDS011;24958;48.066;11.038;2022-10-28T04:34:11;3.93;;;2.90;;
39256;SDS011;24958;48.066;11.038;2022-10-28T04:36:37;3.67;;;3.20;;
39256;SDS011;24958;48.066;11.038;2022-10-28T04:39:03;3.70;;;3.30;;
39256;SDS011;24958;48.066;11.038;2022-10-28T04:41:29;4.30;;;2.73;;
39256;SDS011;24958;48.066;11.038;2022-10-28T04:43:55;3.83;;;2.90;;
39256;SDS011;24958;48.066;11.038;2022-10-28T04:46:21;4.53;;;2.80;;
39256;SDS011;24958;48.066;11.038;2022-10-28T04:48:47;3.10;;;2.80;;
39256;SDS011;24958;48.066;11.038;2022-10-28T04:51:13;4.23;;;3.07;;
39256;SDS011;24958;48.066;11.038;2022-10-28T04:53:39;3.63;;;2.73;;
39256;SDS011;24958;48.066;11.038;2022-10-28T04:56:05;3.00;;;2.70;;
39256;SDS011;24958;48.066;11.038;2022-10-28T04:58:31;3.20;;;2.80;;
39256;SDS011;24958;48.066;11.038;2022-10-28T05:00:57;4.73;;;2.80;;
39256;SDS011;24958;48.066;11.038;2022-10-28T05:03:23;4.47;;;3.10;;
39256;SDS011;24958;48.066;11.038;2022-10-28T05:05:49;4.73;;;3.10;;
39256;SDS011;24958;48.066;11.038;2022-10-28T05:08:15;3.40;;;2.90;;
39256;SDS011;24958;48.066;11.038;2022-10-28T05:10:41;5.40;;;2.83;;
39256;SDS011;24958;48.066;11.038;2022-10-28T05:13:07;4.17;;;2.73;;
39256;SDS011;24958;48.066;11.038;2022-10-28T05:15:33;4.60;;;2.93;;
39256;SDS011;24958;48.066;11.038;2022-10-28T05:17:59;3.30;;;2.90;;
39256;SDS011;24958;48.066;11.038;2022-10-28T05:20:25;2.80;;;2.60;;
39256;SDS011;24958;48.066;11.038;2022-10-28T05:22:51;4.53;;;2.60;;
39256;SDS011;24958;48.066;11.038;2022-10-28T05:25:19;4.67;;;2.80;;
39256;SDS011;24958;48.066;11.038;2022-10-28T05:27:46;3.23;;;2.77;;
39256;SDS011;24958;48.066;11.038;2022-10-28T05:30:12;4.30;;;2.50;;
39256;SDS011;24958;48.066;11.038;2022-10-28T05:32:38;2.70;;;2.20;;
39256;SDS011;24958;48.066;11.038;2022-10-28T05:35:04;3.83;;;2.30;;
39256;SDS011;24958;48.066;11.038;2022-10-28T05:37:31;3.47;;;2.40;;
39256;SDS011;24958;48.066;11.038;2022-10-28T05:40:00;4.00;;;2.70;;
39256;SDS011;24958;48.066;11.038;2022-10-28T05:42:26;2.70;;;2.20;;
39256;SDS011;24958;48.066;11.038;2022-10-28T05:44:52;2.90;;;2.30;;
39256;SDS011;24958;48.066;11.038;2022-10-28T05:47:18;2.60;;;2.30;;
39256;SDS011;24958;48.066;11.038;2022-10-28T05:49:44;4.20;;;2.60;;
39256;SDS011;24958;48.066;11.038;2022-10-28T05:52:10;3.50;;;2.50;;
39256;SDS011;24958;48.066;11.038;2022-10-28T05:54:36;3.77;;;2.40;;
39256;SDS011;24958;48.066;11.038;2022-10-28T05:57:02;3.33;;;2.73;;
39256;SDS011;24958;48.066;11.038;2022-10-28T05:59:28;3.23;;;2.20;;
39256;SDS011;24958;48.066;11.038;2022-10-28T06:01:54;3.50;;;2.17;;
39256;SDS011;24958;48.066;11.038;2022-10-28T06:04:20;2.80;;;2.37;;
39256;SDS011;24958;48.066;11.038;2022-10-28T06:06:46;2.80;;;2.50;;
39256;SDS011;24958;48.066;11.038;2022-10-28T06:09:12;3.53;;;2.50;;
39256;SDS011;24958;48.066;11.038;2022-10-28T06:11:38;4.03;;;2.13;;
39256;SDS011;24958;48.066;11.038;2022-10-28T06:14:04;2.60;;;2.40;;
39256;SDS011;24958;48.066;11.038;2022-10-28T06:16:30;2.10;;;1.90;;
39256;SDS011;24958;48.066;11.038;2022-10-28T06:18:56;3.27;;;2.10;;
39256;SDS011;24958;48.066;11.038;2022-10-28T06:21:22;3.50;;;2.20;;
39256;SDS011;24958;48.066;11.038;2022-10-28T06:23:48;4.00;;;2.20;;
39256;SDS011;24958;48.066;11.038;2022-10-28T06:26:14;4.13;;;2.30;;
39256;SDS011;24958;48.066;11.038;2022-10-28T06:28:40;3.50;;;2.07;;
39256;SDS011;24958;48.066;11.038;2022-10-28T06:31:06;2.80;;;2.30;;
39256;SDS011;24958;48.066;11.038;2022-10-28T06:33:33;3.63;;;2.40;;
39256;SDS011;24958;48.066;11.038;2022-10-28T06:35:59;2.60;;;2.30;;
39256;SDS011;24958;48.066;11.038;2022-10-28T06:38:26;3.13;;;2.00;;
39256;SDS011;24958;48.066;11.038;2022-10-28T06:40:52;4.80;;;2.30;;
39256;SDS011;24958;48.066;11.038;2022-10-28T06:43:18;4.03;;;2.50;;
39256;SDS011;24958;48.066;11.038;2022-10-28T06:45:44;3.63;;;2.53;;
39256;SDS011;24958;48.066;11.038;2022-10-28T06:48:18;3.70;;;2.43;;
39256;SDS011;24958;48.066;11.038;2022-10-28T06:50:44;3.07;;;2.10;;
39256;SDS011;24958;48.066;11.038;2022-10-28T06:53:10;3.27;;;2.13;;
39256;SDS011;24958;48.066;11.038;2022-10-28T06:55:36;3.13;;;2.20;;
39256;SDS011;24958;48.066;11.038;2022-10-28T06:58:02;2.40;;;2.20;;
39256;SDS011;24958;48.066;11.038;2022-10-28T07:00:29;4.50;;;2.20;;
39256;SDS011;24958;48.066;11.038;2022-10-28T07:02:58;3.03;;;1.93;;
39256;SDS011;24958;48.066;11.038;2022-10-28T07:05:24;4.03;;;2.33;;
39256;SDS011;24958;48.066;11.038;2022-10-28T07:07:51;3.57;;;2.20;;
39256;SDS011;24958;48.066;11.038;2022-10-28T07:10:27;2.37;;;2.17;;
39256;SDS011;24958;48.066;11.038;2022-10-28T07:12:56;4.30;;;2.50;;
39256;SDS011;24958;48.066;11.038;2022-10-28T07:15:22;3.17;;;2.23;;
39256;SDS011;24958;48.066;11.038;2022-10-28T07:17:54;4.27;;;2.90;;
39256;SDS011;24958;48.066;11.038;2022-10-28T07:20:21;3.23;;;2.60;;
39256;SDS011;24958;48.066;11.038;2022-10-28T07:22:47;3.80;;;2.70;;
39256;SDS011;24958;48.066;11.038;2022-10-28T07:25:19;3.97;;;2.97;;
39256;SDS011;24958;48.066;11.038;2022-10-28T07:27:45;3.50;;;2.50;;
39256;SDS011;24958;48.066;11.038;2022-10-28T07:30:11;4.53;;;3.30;;
39256;SDS011;24958;48.066;11.038;2022-10-28T07:32:37;4.00;;;3.17;;
39256;SDS011;24958;48.066;11.038;2022-10-28T07:35:03;2.80;;;2.60;;
39256;SDS011;24958;48.066;11.038;2022-10-28T07:37:29;5.25;;;3.63;;
39256;SDS011;24958;48.066;11.038;2022-10-28T07:39:55;5.50;;;3.67;;
39256;SDS011;24958;48.066;11.038;2022-10-28T07:42:21;2.83;;;2.53;;
39256;SDS011;24958;48.066;11.038;2022-10-28T07:44:47;4.68;;;2.72;;
39256;SDS011;24958;48.066;11.038;2022-10-28T07:47:13;3.40;;;2.78;;
39256;SDS011;24958;48.066;11.038;2022-10-28T07:49:41;4.28;;;2.67;;
39256;SDS011;24958;48.066;11.038;2022-10-28T07:52:08;3.97;;;3.10;;
39256;SDS011;24958;48.066;11.038;2022-10-28T07:54:34;6.22;;;3.13;;
39256;SDS011;24958;48.066;11.038;2022-10-28T07:57:00;3.58;;;2.78;;
39256;SDS011;24958;48.066;11.038;2022-10-28T07:59:26;3.03;;;2.50;;
39256;SDS011;24958;48.066;11.038;2022-10-28T08:01:52;2.50;;;2.30;;
39256;SDS011;24958;48.066;11.038;2022-10-28T08:04:18;3.15;;;2.20;;
39256;SDS011;24958;48.066;11.038;2022-10-28T08:06:44;5.30;;;2.40;;
39256;SDS011;24958;48.066;11.038;2022-10-28T08:09:10;7.07;;;2.70;;
39256;SDS011;24958;48.066;11.038;2022-10-28T08:11:36;5.05;;;3.15;;
39256;SDS011;24958;48.066;11.038;2022-10-28T08:14:02;4.22;;;3.20;;
39256;SDS011;24958;48.066;11.038;2022-10-28T08:16:28;4.15;;;3.50;;
39256;SDS011;24958;48.066;11.038;2022-10-28T08:18:55;5.03;;;4.53;;
39256;SDS011;24958;48.066;11.038;2022-10-28T08:21:21;6.32;;;5.82;;
39256;SDS011;24958;48.066;11.038;2022-10-28T08:23:48;4.22;;;3.80;;
39256;SDS011;24958;48.066;11.038;2022-10-28T08:26:15;4.10;;;3.80;;
39256;SDS011;24958;48.066;11.038;2022-10-28T08:28:42;5.15;;;3.33;;
39256;SDS011;24958;48.066;11.038;2022-10-28T08:31:08;3.92;;;3.03;;
39256;SDS011;24958;48.066;11.038;2022-10-28T08:33:36;6.32;;;3.85;;
39256;SDS011;24958;48.066;11.038;2022-10-28T08:36:06;5.20;;;3.90;;
39256;SDS011;24958;48.066;11.038;2022-10-28T08:38:35;4.38;;;3.92;;
39256;SDS011;24958;48.066;11.038;2022-10-28T08:48:53;3.10;;;2.60;;
39256;SDS011;24958;48.066;11.038;2022-10-28T08:51:25;4.53;;;2.50;;
39256;SDS011;24958;48.066;11.038;2022-10-28T08:53:54;3.55;;;2.33;;
39256;SDS011;24958;48.066;11.038;2022-10-28T08:56:27;5.50;;;2.13;;
39256;SDS011;24958;48.066;11.038;2022-10-28T08:58:55;3.08;;;2.28;;
39256;SDS011;24958;48.066;11.038;2022-10-28T09:06:53;4.03;;;2.20;;
39256;SDS011;24958;48.066;11.038;2022-10-28T09:09:21;4.03;;;2.30;;
39256;SDS011;24958;48.066;11.038;2022-10-28T09:17:35;3.08;;;1.80;;
39256;SDS011;24958;48.066;11.038;2022-10-28T09:25:20;4.03;;;1.90;;
39256;SDS011;24958;48.066;11.038;2022-10-28T09:27:50;2.85;;;1.65;;
39256;SDS011;24958;48.066;11.038;2022-10-28T09:30:38;3.40;;;1.52;;
39256;SDS011;24958;48.066;11.038;2022-10-28T09:35:33;3.33;;;1.50;;
39256;SDS011;24958;48.066;11.038;2022-10-28T09:38:13;3.30;;;1.70;;
39256;SDS011;24958;48.066;11.038;2022-10-28T09:40:39;2.38;;;1.50;;
39256;SDS011;24958;48.066;11.038;2022-10-28T09:43:10;3.13;;;1.63;;
39256;SDS011;24958;48.066;11.038;2022-10-28T09:45:42;5.63;;;1.90;;
39256;SDS011;24958;48.066;11.038;2022-10-28T09:48:18;2.40;;;1.70;;
39256;SDS011;24958;48.066;11.038;2022-10-28T09:50:45;2.90;;;1.48;;
39256;SDS011;24958;48.066;11.038;2022-10-28T09:53:18;3.15;;;1.60;;
39256;SDS011;24958;48.066;11.038;2022-10-28T09:55:46;4.07;;;1.60;;
39256;SDS011;24958;48.066;11.038;2022-10-28T09:58:17;1.85;;;1.50;;
39256;SDS011;24958;48.066;11.038;2022-10-28T10:00:43;1.85;;;1.60;;
39256;SDS011;24958;48.066;11.038;2022-10-28T10:03:10;3.17;;;1.42;;
39256;SDS011;24958;48.066;11.038;2022-10-28T10:05:36;3.03;;;1.60;;
39256;SDS011;24958;48.066;11.038;2022-10-28T10:08:08;2.60;;;1.50;;
39256;SDS011;24958;48.066;11.038;2022-10-28T10:10:46;2.53;;;1.40;;
39256;SDS011;24958;48.066;11.038;2022-10-28T10:13:13;2.63;;;1.40;;
39256;SDS011;24958;48.066;11.038;2022-10-28T10:15:42;3.53;;;1.60;;
39256;SDS011;24958;48.066;11.038;2022-10-28T10:18:16;3.90;;;1.50;;
39256;SDS011;24958;48.066;11.038;2022-10-28T10:20:53;3.25;;;1.60;;
39256;SDS011;24958;48.066;11.038;2022-10-28T10:23:34;3.33;;;1.50;;
39256;SDS011;24958;48.066;11.038;2022-10-28T10:26:13;2.35;;;1.50;;
39256;SDS011;24958;48.066;11.038;2022-10-28T10:28:47;3.28;;;1.70;;
39256;SDS011;24958;48.066;11.038;2022-10-28T10:33:47;2.30;;;1.40;;
39256;SDS011;24958;48.066;11.038;2022-10-28T10:36:15;1.70;;;1.40;;
39256;SDS011;24958;48.066;11.038;2022-10-28T10:38:51;3.83;;;1.52;;
39256;SDS011;24958;48.066;11.038;2022-10-28T10:49:26;2.22;;;1.52;;
39256;SDS011;24958;48.066;11.038;2022-10-28T10:51:56;3.15;;;1.73;;
39256;SDS011;24958;48.066;11.038;2022-10-28T10:54:26;3.63;;;1.85;;
39256;SDS011;24958;48.066;11.038;2022-10-28T10:57:04;2.15;;;1.40;;
39256;SDS011;24958;48.066;11.038;2022-10-28T10:59:30;2.13;;;1.38;;
39256;SDS011;24958;48.066;11.038;2022-10-28T11:01:57;2.95;;;1.98;;
39256;SDS011;24958;48.066;11.038;2022-10-28T11:04:24;2.55;;;1.80;;
39256;SDS011;24958;48.066;11.038;2022-10-28T11:06:51;3.42;;;1.65;;
39256;SDS011;24958;48.066;11.038;2022-10-28T11:09:25;2.75;;;1.60;;
39256;SDS011;24958;48.066;11.038;2022-10-28T11:11:53;1.80;;;1.40;;
39256;SDS011;24958;48.066;11.038;2022-10-28T11:14:27;2.45;;;1.42;;
39256;SDS011;24958;48.066;11.038;2022-10-28T11:17:08;2.22;;;1.27;;
39256;SDS011;24958;48.066;11.038;2022-10-28T11:19:42;2.42;;;1.80;;
39256;SDS011;24958;48.066;11.038;2022-10-28T11:22:28;3.63;;;1.98;;
39256;SDS011;24958;48.066;11.038;2022-10-28T11:30:26;5.60;;;2.03;;
39256;SDS011;24958;48.066;11.038;2022-10-28T11:38:58;3.17;;;1.38;;
39256;SDS011;24958;48.066;11.038;2022-10-28T11:46:04;3.28;;;1.60;;
39256;SDS011;24958;48.066;11.038;2022-10-28T12:04:59;4.72;;;1.58;;
39256;SDS011;24958;48.066;11.038;2022-10-28T12:10:17;2.95;;;2.00;;
39256;SDS011;24958;48.066;11.038;2022-10-28T12:17:42;2.83;;;1.73;;
39256;SDS011;24958;48.066;11.038;2022-10-28T12:20:20;7.40;;;3.00;;
39256;SDS011;24958;48.066;11.038;2022-10-28T12:22:49;3.45;;;2.00;;
39256;SDS011;24958;48.066;11.038;2022-10-28T12:25:17;3.85;;;2.30;;
39256;SDS011;24958;48.066;11.038;2022-10-28T12:27:47;4.40;;;1.77;;
39256;SDS011;24958;48.066;11.038;2022-10-28T12:30:16;3.25;;;2.10;;
39256;SDS011;24958;48.066;11.038;2022-10-28T12:32:45;4.13;;;2.58;;
39256;SDS011;24958;48.066;11.038;2022-10-28T12:35:19;2.33;;;1.70;;
39256;SDS011;24958;48.066;11.038;2022-10-28T12:37:48;3.38;;;1.80;;
39256;SDS011;24958;48.066;11.038;2022-10-28T12:40:20;2.78;;;2.10;;
39256;SDS011;24958;48.066;11.038;2022-10-28T12:42:55;3.63;;;1.77;;
39256;SDS011;24958;48.066;11.038;2022-10-28T12:45:22;3.45;;;2.00;;
39256;SDS011;24958;48.066;11.038;2022-10-28T12:47:50;4.25;;;2.10;;
39256;SDS011;24958;48.066;11.038;2022-10-28T12:50:30;2.42;;;1.50;;
39256;SDS011;24958;48.066;11.038;2022-10-28T12:55:28;3.17;;;1.90;;
39256;SDS011;24958;48.066;11.038;2022-10-28T12:57:58;3.83;;;1.63;;
39256;SDS011;24958;48.066;11.038;2022-10-28T13:00:25;2.05;;;1.67;;
39256;SDS011;24958;48.066;11.038;2022-10-28T13:03:01;2.22;;;1.55;;
39256;SDS011;24958;48.066;11.038;2022-10-28T13:05:32;3.65;;;1.70;;
39256;SDS011;24958;48.066;11.038;2022-10-28T13:08:06;3.20;;;2.30;;
39256;SDS011;24958;48.066;11.038;2022-10-28T13:10:41;2.88;;;1.58;;
39256;SDS011;24958;48.066;11.038;2022-10-28T13:21:09;3.45;;;1.52;;
39256;SDS011;24958;48.066;11.038;2022-10-28T13:23:50;2.53;;;1.42;;
39256;SDS011;24958;48.066;11.038;2022-10-28T13:28:52;2.08;;;1.60;;
39256;SDS011;24958;48.066;11.038;2022-10-28T13:31:18;2.97;;;1.80;;
39256;SDS011;24958;48.066;11.038;2022-10-28T13:33:46;2.40;;;1.42;;
39256;SDS011;24958;48.066;11.038;2022-10-28T13:38:48;2.03;;;1.70;;
39256;SDS011;24958;48.066;11.038;2022-10-28T13:41:26;3.55;;;1.85;;
39256;SDS011;24958;48.066;11.038;2022-10-28T13:49:22;2.35;;;1.60;;
39256;SDS011;24958;48.066;11.038;2022-10-28T13:51:49;1.67;;;1.50;;
39256;SDS011;24958;48.066;11.038;2022-10-28T13:54:25;3.03;;;1.45;;
39256;SDS011;24958;48.066;11.038;2022-10-28T13:56:51;2.22;;;1.35;;
39256;SDS011;24958;48.066;11.038;2022-10-28T13:59:25;2.65;;;1.60;;
39256;SDS011;24958;48.066;11.038;2022-10-28T14:01:54;3.75;;;1.35;;
39256;SDS011;24958;48.066;11.038;2022-10-28T14:04:22;3.75;;;1.50;;
39256;SDS011;24958;48.066;11.038;2022-10-28T14:06:49;2.40;;;1.60;;
39256;SDS011;24958;48.066;11.038;2022-10-28T14:09:21;2.58;;;1.45;;
39256;SDS011;24958;48.066;11.038;2022-10-28T14:12:02;3.75;;;2.00;;
39256;SDS011;24958;48.066;11.038;2022-10-28T14:14:28;2.75;;;1.83;;
39256;SDS011;24958;48.066;11.038;2022-10-28T14:16:54;2.95;;;1.73;;
39256;SDS011;24958;48.066;11.038;2022-10-28T14:19:20;3.38;;;1.38;;
39256;SDS011;24958;48.066;11.038;2022-10-28T14:22:05;3.22;;;1.35;;
39256;SDS011;24958;48.066;11.038;2022-10-28T14:29:46;1.88;;;1.40;;
39256;SDS011;24958;48.066;11.038;2022-10-28T14:35:04;3.38;;;1.48;;
39256;SDS011;24958;48.066;11.038;2022-10-28T14:46:12;2.33;;;1.67;;
39256;SDS011;24958;48.066;11.038;2022-10-28T14:48:39;3.22;;;1.77;;
39256;SDS011;24958;48.066;11.038;2022-10-28T14:51:08;2.80;;;1.42;;
39256;SDS011;24958;48.066;11.038;2022-10-28T14:53:38;1.77;;;1.50;;
39256;SDS011;24958;48.066;11.038;2022-10-28T14:56:06;2.92;;;1.60;;
39256;SDS011;24958;48.066;11.038;2022-10-28T14:58:35;3.83;;;1.45;;
39256;SDS011;24958;48.066;11.038;2022-10-28T15:08:46;3.03;;;1.70;;
39256;SDS011;24958;48.066;11.038;2022-10-28T15:11:14;4.10;;;1.90;;
39256;SDS011;24958;48.066;11.038;2022-10-28T15:13:40;3.15;;;1.40;;
39256;SDS011;24958;48.066;11.038;2022-10-28T15:16:17;3.17;;;1.70;;
39256;SDS011;24958;48.066;11.038;2022-10-28T15:18:47;3.47;;;1.67;;
39256;SDS011;24958;48.066;11.038;2022-10-28T15:21:15;3.72;;;2.20;;
39256;SDS011;24958;48.066;11.038;2022-10-28T15:23:41;2.85;;;1.67;;
39256;SDS011;24958;48.066;11.038;2022-10-28T15:28:37;3.13;;;1.40;;
39256;SDS011;24958;48.066;11.038;2022-10-28T15:31:03;5.15;;;1.80;;
39256;SDS011;24958;48.066;11.038;2022-10-28T15:33:30;3.17;;;1.80;;
39256;SDS011;24958;48.066;11.038;2022-10-28T15:38:33;2.38;;;1.50;;
39256;SDS011;24958;48.066;11.038;2022-10-28T15:41:03;6.85;;;3.28;;
39256;SDS011;24958;48.066;11.038;2022-10-28T15:43:43;3.80;;;2.55;;
39256;SDS011;24958;48.066;11.038;2022-10-28T15:46:18;4.97;;;2.20;;
39256;SDS011;24958;48.066;11.038;2022-10-28T15:48:44;8.10;;;2.63;;
39256;SDS011;24958;48.066;11.038;2022-10-28T15:51:14;5.32;;;2.30;;
39256;SDS011;24958;48.066;11.038;2022-10-28T15:53:43;3.67;;;2.08;;
39256;SDS011;24958;48.066;11.038;2022-10-28T15:58:39;7.78;;;2.03;;
39256;SDS011;24958;48.066;11.038;2022-10-28T16:01:07;5.20;;;2.33;;
39256;SDS011;24958;48.066;11.038;2022-10-28T16:03:41;5.10;;;2.08;;
39256;SDS011;24958;48.066;11.038;2022-10-28T16:09:05;5.72;;;2.13;;
39256;SDS011;24958;48.066;11.038;2022-10-28T16:11:32;6.53;;;1.75;;
39256;SDS011;24958;48.066;11.038;2022-10-28T16:14:02;5.80;;;2.40;;
39256;SDS011;24958;48.066;11.038;2022-10-28T16:16:31;4.50;;;2.00;;
39256;SDS011;24958;48.066;11.038;2022-10-28T16:19:08;5.32;;;2.60;;
39256;SDS011;24958;48.066;11.038;2022-10-28T16:21:35;6.88;;;3.25;;
39256;SDS011;24958;48.066;11.038;2022-10-28T16:24:02;6.15;;;3.05;;
39256;SDS011;24958;48.066;11.038;2022-10-28T16:26:29;5.60;;;3.05;;
39256;SDS011;24958;48.066;11.038;2022-10-28T16:28:57;8.52;;;3.65;;
39256;SDS011;24958;48.066;11.038;2022-10-28T16:31:24;8.70;;;3.53;;
39256;SDS011;24958;48.066;11.038;2022-10-28T16:33:52;4.65;;;2.50;;
39256;SDS011;24958;48.066;11.038;2022-10-28T16:36:18;7.90;;;2.20;;
39256;SDS011;24958;48.066;11.038;2022-10-28T16:38:44;4.35;;;2.30;;
39256;SDS011;24958;48.066;11.038;2022-10-28T16:41:12;5.05;;;2.20;;
39256;SDS011;24958;48.066;11.038;2022-10-28T16:43:39;4.30;;;2.30;;
39256;SDS011;24958;48.066;11.038;2022-10-28T16:46:05;6.43;;;3.10;;
39256;SDS011;24958;48.066;11.038;2022-10-28T16:48:31;5.40;;;2.90;;
39256;SDS011;24958;48.066;11.038;2022-10-28T16:51:01;7.85;;;2.25;;
39256;SDS011;24958;48.066;11.038;2022-10-28T16:53:28;6.20;;;2.40;;
39256;SDS011;24958;48.066;11.038;2022-10-28T16:55:54;6.18;;;3.03;;
39256;SDS011;24958;48.066;11.038;2022-10-28T16:58:31;6.85;;;2.50;;
39256;SDS011;24958;48.066;11.038;2022-10-28T17:00:58;3.95;;;2.15;;
39256;SDS011;24958;48.066;11.038;2022-10-28T17:03:24;7.28;;;2.65;;
39256;SDS011;24958;48.066;11.038;2022-10-28T17:05:50;5.75;;;2.15;;
39256;SDS011;24958;48.066;11.038;2022-10-28T17:08:16;4.45;;;2.30;;
39256;SDS011;24958;48.066;11.038;2022-10-28T17:10:42;4.35;;;3.60;;
39256;SDS011;24958;48.066;11.038;2022-10-28T17:13:12;5.70;;;2.10;;
39256;SDS011;24958;48.066;11.038;2022-10-28T17:15:38;2.55;;;1.88;;
39256;SDS011;24958;48.066;11.038;2022-10-28T17:18:04;6.38;;;2.15;;
39256;SDS011;24958;48.066;11.038;2022-10-28T17:20:31;6.55;;;2.40;;
39256;SDS011;24958;48.066;11.038;2022-10-28T17:22:57;4.93;;;2.50;;
39256;SDS011;24958;48.066;11.038;2022-10-28T17:25:24;8.00;;;2.40;;
39256;SDS011;24958;48.066;11.038;2022-10-28T17:27:51;4.10;;;1.73;;
39256;SDS011;24958;48.066;11.038;2022-10-28T17:30:17;3.33;;;1.63;;
39256;SDS011;24958;48.066;11.038;2022-10-28T17:32:43;3.28;;;1.67;;
39256;SDS011;24958;48.066;11.038;2022-10-28T17:35:09;3.05;;;1.95;;
39256;SDS011;24958;48.066;11.038;2022-10-28T17:37:35;1.90;;;1.63;;